Auburn Hills, MI (48321)

19:20 EST 29. Leden 2015 (GMT -0500)
2 mi SE of the Palace | Change Station
CLOSE
Current Station
Osobní povětrnostní stanice
Location: Auburn Hills, MI
Nadmořská výška: 950 ft
Poblíž povětrnostní stanice

Výška 950 ft 42.67 °N, 83.23 °W | Updated 1 second ago

Zataženo
Zataženo
29.4 °F
Pocit jako 29 °F
S
0.0
Vítr proměnlivý Vítr od ZSZ
Gusts 0.0 mil/h

Dnes
Vysoké -- | Nízké -- °F
--% Možnost srážek
Včera
Vysoké -- | Nízké -- °F
Precip. -- inčů
7:50 AM 5:42 PM
Dorůstající měsíc, 78% visible
Tlak 29.91 inčů
Viditelnost 5.0 mílí
Zataženo Zataženo 1300 ft
Ochlazování větrem 29 °F
Rosný bod 26 °F
Vlhkost 86%
Dešťové srážky 0.00 inčů
Sněhová pokrývka Není k dispozici
UV záření 0 ze 12
Pyl .10 ze 12
Kvalita ovzduší Není k dispozici
Flu Activity Není k dispozici
SPECI KPTK 300009Z 31011KT 5SM BR OVC013 M01/M03 A2991 RMK AO2 T10111028

More Conditions Fewer Conditions

Tlak 29.91 inčů
Viditelnost 5.0 mílí
Zataženo Zataženo 1300 ft
Ochlazování větrem 29 °F
Rosný bod 26 °F
Vlhkost 86%
Dešťové srážky 0.00 inčů
Sněhová pokrývka Není k dispozici
UV záření 0 ze 12
Pyl .10 ze 12
Kvalita ovzduší Není k dispozici
Flu Activity Není k dispozici
SPECI KPTK 300009Z 31011KT 5SM BR OVC013 M01/M03 A2991 RMK AO2 T10111028

More Conditions Fewer Conditions

10-Day Weather Forecast

Almanac

Astronomie

Jan. 29, 2015 Východ Západ
Skutečný čas
Občanský soumrak
Námořní soumrak
Astronomický soumrak
Měsíc
Délka denního světla
Délka dne
Tomorrow will be .
, % of the Moon is Illuminated

Dnešní extrémy

State Highs State Lows

Community

WunderPhotos

Upload Photos

1,791,651 snímků staženo!

WunderBlogs® & News

Nearby

Kvalita ovzduší

  Kvalita ovzduší Index kvality ovzduší Polutant
Not available.

Výška sněhu

Station Hloubka Nadmořská výška

Seizmická činnost

Město Distance Mag. Čas & datum
Minimální zobrazený rozsah je 2.5.

Pobřežní teplota vody

Lokalita Teplota

Poblíž povětrnostní stanice